sensor_id;sensor_type;location;lat;lon;timestamp;pressure;altitude;pressure_sealevel;temperature;humidity
11041;BME280;5573;49.592;8.662;2022-10-31T00:01:00;100293.00;;;12.47;100.00
11041;BME280;5573;49.592;8.662;2022-10-31T00:03:48;100296.22;;;12.52;100.00
11041;BME280;5573;49.592;8.662;2022-10-31T00:06:36;100294.66;;;12.55;100.00
11041;BME280;5573;49.592;8.662;2022-10-31T00:09:25;100289.53;;;12.60;100.00
11041;BME280;5573;49.592;8.662;2022-10-31T00:12:13;100295.16;;;12.71;100.00
11041;BME280;5573;49.592;8.662;2022-10-31T00:15:01;100303.47;;;12.78;100.00
11041;BME280;5573;49.592;8.662;2022-10-31T00:17:49;100290.81;;;12.70;100.00
11041;BME280;5573;49.592;8.662;2022-10-31T00:20:38;100290.34;;;12.61;100.00
11041;BME280;5573;49.592;8.662;2022-10-31T00:23:26;100284.84;;;12.65;100.00
11041;BME280;5573;49.592;8.662;2022-10-31T00:26:15;100288.00;;;12.67;100.00
11041;BME280;5573;49.592;8.662;2022-10-31T00:29:04;100288.41;;;12.65;100.00
11041;BME280;5573;49.592;8.662;2022-10-31T00:31:52;100296.28;;;12.63;100.00
11041;BME280;5573;49.592;8.662;2022-10-31T00:34:40;100298.31;;;12.70;100.00
11041;BME280;5573;49.592;8.662;2022-10-31T00:37:29;100295.13;;;12.68;100.00
11041;BME280;5573;49.592;8.662;2022-10-31T00:40:17;100289.16;;;12.62;100.00
11041;BME280;5573;49.592;8.662;2022-10-31T00:43:06;100294.75;;;12.73;100.00
11041;BME280;5573;49.592;8.662;2022-10-31T00:45:54;100295.56;;;12.73;100.00
11041;BME280;5573;49.592;8.662;2022-10-31T00:48:44;100297.03;;;12.60;100.00
11041;BME280;5573;49.592;8.662;2022-10-31T00:51:32;100308.47;;;12.58;100.00
11041;BME280;5573;49.592;8.662;2022-10-31T00:54:20;100238.38;;;12.15;100.00
11041;BME280;5573;49.592;8.662;2022-10-31T00:57:09;100302.94;;;12.55;100.00
11041;BME280;5573;49.592;8.662;2022-10-31T00:59:58;100316.31;;;12.56;100.00
11041;BME280;5573;49.592;8.662;2022-10-31T01:02:47;100307.19;;;12.45;100.00
11041;BME280;5573;49.592;8.662;2022-10-31T01:05:35;100306.41;;;12.45;100.00
11041;BME280;5573;49.592;8.662;2022-10-31T01:08:23;100315.47;;;12.45;100.00
11041;BME280;5573;49.592;8.662;2022-10-31T01:11:13;100322.53;;;12.43;100.00
11041;BME280;5573;49.592;8.662;2022-10-31T01:14:02;100312.63;;;12.34;100.00
11041;BME280;5573;49.592;8.662;2022-10-31T01:16:53;100314.97;;;12.32;100.00
11041;BME280;5573;49.592;8.662;2022-10-31T01:19:41;100312.94;;;12.26;100.00
11041;BME280;5573;49.592;8.662;2022-10-31T01:22:29;100322.81;;;12.30;100.00
11041;BME280;5573;49.592;8.662;2022-10-31T01:25:19;100321.25;;;12.29;100.00
11041;BME280;5573;49.592;8.662;2022-10-31T01:28:08;100321.31;;;12.36;100.00
11041;BME280;5573;49.592;8.662;2022-10-31T01:31:00;100303.16;;;12.32;100.00
11041;BME280;5573;49.592;8.662;2022-10-31T01:33:50;100310.56;;;12.24;100.00
11041;BME280;5573;49.592;8.662;2022-10-31T01:36:39;100273.34;;;12.04;100.00
11041;BME280;5573;49.592;8.662;2022-10-31T01:39:29;100318.88;;;12.28;100.00
11041;BME280;5573;49.592;8.662;2022-10-31T01:42:19;100316.09;;;12.28;100.00
11041;BME280;5573;49.592;8.662;2022-10-31T01:45:09;100281.59;;;12.04;100.00
11041;BME280;5573;49.592;8.662;2022-10-31T01:47:58;100314.09;;;12.21;100.00
11041;BME280;5573;49.592;8.662;2022-10-31T01:50:48;100314.50;;;12.27;100.00
11041;BME280;5573;49.592;8.662;2022-10-31T01:53:39;100310.97;;;12.26;100.00
11041;BME280;5573;49.592;8.662;2022-10-31T01:56:27;100312.19;;;12.32;100.00
11041;BME280;5573;49.592;8.662;2022-10-31T01:59:19;100304.69;;;12.29;100.00
11041;BME280;5573;49.592;8.662;2022-10-31T02:02:08;100303.88;;;12.29;100.00
11041;BME280;5573;49.592;8.662;2022-10-31T02:04:57;100290.09;;;12.25;100.00
11041;BME280;5573;49.592;8.662;2022-10-31T02:07:53;100298.00;;;12.30;100.00
11041;BME280;5573;49.592;8.662;2022-10-31T02:10:48;100306.72;;;12.36;100.00
11041;BME280;5573;49.592;8.662;2022-10-31T02:13:37;100284.94;;;12.24;100.00
11041;BME280;5573;49.592;8.662;2022-10-31T02:16:27;100301.22;;;12.36;100.00
11041;BME280;5573;49.592;8.662;2022-10-31T02:19:19;100302.81;;;12.40;100.00
11041;BME280;5573;49.592;8.662;2022-10-31T02:22:17;100296.09;;;12.41;100.00
11041;BME280;5573;49.592;8.662;2022-10-31T02:25:28;100298.81;;;12.34;100.00
11041;BME280;5573;49.592;8.662;2022-10-31T02:28:40;100296.44;;;12.33;100.00
11041;BME280;5573;49.592;8.662;2022-10-31T02:31:42;100295.25;;;12.30;100.00
11041;BME280;5573;49.592;8.662;2022-10-31T02:34:37;100288.50;;;12.24;100.00
11041;BME280;5573;49.592;8.662;2022-10-31T02:37:36;100284.91;;;12.20;100.00
11041;BME280;5573;49.592;8.662;2022-10-31T02:40:27;100288.06;;;12.18;100.00
11041;BME280;5573;49.592;8.662;2022-10-31T02:43:35;100281.72;;;12.18;100.00
11041;BME280;5573;49.592;8.662;2022-10-31T02:46:32;100279.38;;;12.16;100.00
11041;BME280;5573;49.592;8.662;2022-10-31T02:49:28;100273.81;;;12.13;100.00
11041;BME280;5573;49.592;8.662;2022-10-31T02:52:20;100276.22;;;12.18;100.00
11041;BME280;5573;49.592;8.662;2022-10-31T02:55:10;100272.25;;;12.15;100.00
11041;BME280;5573;49.592;8.662;2022-10-31T02:58:01;100273.47;;;12.18;100.00
11041;BME280;5573;49.592;8.662;2022-10-31T03:01:05;100267.94;;;12.18;100.00
11041;BME280;5573;49.592;8.662;2022-10-31T03:04:11;100269.53;;;12.19;100.00
11041;BME280;5573;49.592;8.662;2022-10-31T03:07:10;100262.84;;;12.16;100.00
11041;BME280;5573;49.592;8.662;2022-10-31T03:10:04;100270.66;;;12.11;100.00
11041;BME280;5573;49.592;8.662;2022-10-31T03:13:00;100275.41;;;12.14;100.00
11041;BME280;5573;49.592;8.662;2022-10-31T03:15:53;100273.88;;;12.16;100.00
11041;BME280;5573;49.592;8.662;2022-10-31T03:18:48;100276.16;;;12.11;100.00
11041;BME280;5573;49.592;8.662;2022-10-31T03:21:41;100267.09;;;12.10;100.00
11041;BME280;5573;49.592;8.662;2022-10-31T03:24:35;100270.69;;;12.14;100.00
11041;BME280;5573;49.592;8.662;2022-10-31T03:27:25;100282.09;;;12.13;100.00
11041;BME280;5573;49.592;8.662;2022-10-31T03:30:14;100274.97;;;12.12;100.00
11041;BME280;5573;49.592;8.662;2022-10-31T03:33:17;100272.59;;;12.07;100.00
11041;BME280;5573;49.592;8.662;2022-10-31T03:36:10;100277.31;;;12.06;100.00
11041;BME280;5573;49.592;8.662;2022-10-31T03:39:01;100274.56;;;12.10;100.00
11041;BME280;5573;49.592;8.662;2022-10-31T03:41:54;100272.63;;;12.14;100.00
11041;BME280;5573;49.592;8.662;2022-10-31T03:44:48;100275.03;;;12.15;100.00
11041;BME280;5573;49.592;8.662;2022-10-31T03:47:39;100262.03;;;12.16;100.00
11041;BME280;5573;49.592;8.662;2022-10-31T03:50:36;100266.34;;;12.13;100.00
11041;BME280;5573;49.592;8.662;2022-10-31T03:53:32;100268.25;;;12.09;100.00
11041;BME280;5573;49.592;8.662;2022-10-31T03:56:27;100275.78;;;12.12;100.00
11041;BME280;5573;49.592;8.662;2022-10-31T03:59:21;100273.34;;;12.04;100.00
11041;BME280;5573;49.592;8.662;2022-10-31T04:02:14;100274.50;;;12.03;100.00
11041;BME280;5573;49.592;8.662;2022-10-31T04:05:05;100266.66;;;12.05;100.00
11041;BME280;5573;49.592;8.662;2022-10-31T04:07:54;100273.72;;;12.02;100.00
11041;BME280;5573;49.592;8.662;2022-10-31T04:10:45;100266.19;;;11.99;100.00
11041;BME280;5573;49.592;8.662;2022-10-31T04:13:38;100261.38;;;11.89;100.00
11041;BME280;5573;49.592;8.662;2022-10-31T04:16:33;100257.84;;;11.88;100.00
11041;BME280;5573;49.592;8.662;2022-10-31T04:19:24;100257.41;;;11.86;100.00
11041;BME280;5573;49.592;8.662;2022-10-31T04:22:12;100252.66;;;11.83;100.00
11041;BME280;5573;49.592;8.662;2022-10-31T04:25:01;100253.81;;;11.82;100.00
11041;BME280;5573;49.592;8.662;2022-10-31T04:27:49;100262.53;;;11.88;100.00
11041;BME280;5573;49.592;8.662;2022-10-31T04:30:37;100254.22;;;11.84;100.00
11041;BME280;5573;49.592;8.662;2022-10-31T04:33:26;100253.06;;;11.85;100.00
11041;BME280;5573;49.592;8.662;2022-10-31T04:36:15;100262.19;;;11.89;100.00
11041;BME280;5573;49.592;8.662;2022-10-31T04:39:03;100251.59;;;11.95;100.00
11041;BME280;5573;49.592;8.662;2022-10-31T04:41:59;100259.06;;;11.94;100.00
11041;BME280;5573;49.592;8.662;2022-10-31T04:44:47;100258.66;;;11.92;100.00
11041;BME280;5573;49.592;8.662;2022-10-31T04:47:35;100250.75;;;11.91;100.00
11041;BME280;5573;49.592;8.662;2022-10-31T04:50:24;100256.25;;;11.87;100.00
11041;BME280;5573;49.592;8.662;2022-10-31T04:53:13;100254.53;;;11.75;100.00
11041;BME280;5573;49.592;8.662;2022-10-31T04:56:29;100266.34;;;11.72;100.00
11041;BME280;5573;49.592;8.662;2022-10-31T04:59:20;100263.84;;;11.64;100.00
11041;BME280;5573;49.592;8.662;2022-10-31T05:02:11;100270.53;;;11.63;100.00
11041;BME280;5573;49.592;8.662;2022-10-31T05:05:06;100265.34;;;11.54;100.00
11041;BME280;5573;49.592;8.662;2022-10-31T05:07:56;100237.03;;;11.23;100.00
11041;BME280;5573;49.592;8.662;2022-10-31T05:10:45;100271.94;;;11.46;100.00
11041;BME280;5573;49.592;8.662;2022-10-31T05:13:33;100274.31;;;11.47;100.00
11041;BME280;5573;49.592;8.662;2022-10-31T05:16:47;100280.91;;;11.39;100.00
11041;BME280;5573;49.592;8.662;2022-10-31T05:19:53;100283.16;;;11.30;100.00
11041;BME280;5573;49.592;8.662;2022-10-31T05:23:09;100279.84;;;11.17;100.00
11041;BME280;5573;49.592;8.662;2022-10-31T05:25:57;100277.84;;;11.14;100.00
11041;BME280;5573;49.592;8.662;2022-10-31T05:28:45;100270.31;;;11.11;100.00
11041;BME280;5573;49.592;8.662;2022-10-31T05:31:33;100271.03;;;11.04;100.00
11041;BME280;5573;49.592;8.662;2022-10-31T05:34:22;100274.81;;;10.92;100.00
11041;BME280;5573;49.592;8.662;2022-10-31T05:37:34;100265.03;;;10.95;100.00
11041;BME280;5573;49.592;8.662;2022-10-31T05:40:23;100262.16;;;10.88;100.00
11041;BME280;5573;49.592;8.662;2022-10-31T05:43:12;100256.34;;;10.93;100.00
11041;BME280;5573;49.592;8.662;2022-10-31T05:46:01;100248.88;;;10.93;100.00
11041;BME280;5573;49.592;8.662;2022-10-31T05:49:09;100251.22;;;10.91;100.00
11041;BME280;5573;49.592;8.662;2022-10-31T05:52:20;100255.09;;;10.87;100.00
11041;BME280;5573;49.592;8.662;2022-10-31T05:55:19;100268.38;;;10.81;100.00
11041;BME280;5573;49.592;8.662;2022-10-31T05:58:23;100166.03;;;10.15;100.00
11041;BME280;5573;49.592;8.662;2022-10-31T06:01:24;100266.31;;;10.74;100.00
11041;BME280;5573;49.592;8.662;2022-10-31T06:04:12;100262.28;;;10.68;100.00
11041;BME280;5573;49.592;8.662;2022-10-31T06:07:01;100264.63;;;10.66;100.00
11041;BME280;5573;49.592;8.662;2022-10-31T06:09:49;100270.13;;;10.66;100.00
11041;BME280;5573;49.592;8.662;2022-10-31T06:12:40;100263.41;;;10.64;100.00
11041;BME280;5573;49.592;8.662;2022-10-31T06:15:37;100264.19;;;10.64;100.00
11041;BME280;5573;49.592;8.662;2022-10-31T06:18:27;100267.69;;;10.61;100.00
11041;BME280;5573;49.592;8.662;2022-10-31T06:21:15;100271.25;;;10.62;100.00
11041;BME280;5573;49.592;8.662;2022-10-31T06:24:07;100264.09;;;10.57;100.00
11041;BME280;5573;49.592;8.662;2022-10-31T06:27:13;100262.50;;;10.56;100.00
11041;BME280;5573;49.592;8.662;2022-10-31T06:30:02;100271.16;;;10.58;100.00
11041;BME280;5573;49.592;8.662;2022-10-31T06:32:52;100262.63;;;10.63;100.00
11041;BME280;5573;49.592;8.662;2022-10-31T06:35:44;100267.38;;;10.66;100.00
11041;BME280;5573;49.592;8.662;2022-10-31T06:38:33;100263.03;;;10.65;100.00
11041;BME280;5573;49.592;8.662;2022-10-31T06:41:25;100266.78;;;10.80;100.00
11041;BME280;5573;49.592;8.662;2022-10-31T06:44:13;100260.25;;;10.92;100.00
11041;BME280;5573;49.592;8.662;2022-10-31T06:47:13;100255.22;;;10.97;100.00
11041;BME280;5573;49.592;8.662;2022-10-31T06:50:19;100232.59;;;10.81;100.00
11041;BME280;5573;49.592;8.662;2022-10-31T06:53:08;100259.38;;;11.14;100.00
11041;BME280;5573;49.592;8.662;2022-10-31T06:56:01;100264.97;;;11.22;100.00
11041;BME280;5573;49.592;8.662;2022-10-31T06:58:53;100258.00;;;11.31;100.00
11041;BME280;5573;49.592;8.662;2022-10-31T07:02:01;100261.28;;;11.41;100.00
11041;BME280;5573;49.592;8.662;2022-10-31T07:04:29;100263.72;;;11.49;100.00
11041;BME280;5573;49.592;8.662;2022-10-31T07:06:58;100262.22;;;11.59;100.00
11041;BME280;5573;49.592;8.662;2022-10-31T07:09:26;100259.16;;;11.68;100.00
11041;BME280;5573;49.592;8.662;2022-10-31T07:11:56;100264.41;;;11.80;100.00
11041;BME280;5573;49.592;8.662;2022-10-31T07:14:24;100260.69;;;11.95;100.00
11041;BME280;5573;49.592;8.662;2022-10-31T07:16:52;100254.03;;;12.04;100.00
11041;BME280;5573;49.592;8.662;2022-10-31T07:19:25;100254.94;;;12.15;100.00
11041;BME280;5573;49.592;8.662;2022-10-31T07:21:53;100262.09;;;12.23;100.00
11041;BME280;5573;49.592;8.662;2022-10-31T07:24:24;100264.56;;;12.35;100.00
11041;BME280;5573;49.592;8.662;2022-10-31T07:27:11;100260.72;;;12.51;100.00
11041;BME280;5573;49.592;8.662;2022-10-31T07:29:39;100262.34;;;12.59;100.00
11041;BME280;5573;49.592;8.662;2022-10-31T07:32:07;100263.59;;;12.69;100.00
11041;BME280;5573;49.592;8.662;2022-10-31T07:34:39;100262.44;;;12.73;100.00
11041;BME280;5573;49.592;8.662;2022-10-31T07:37:27;100255.81;;;12.89;100.00
11041;BME280;5573;49.592;8.662;2022-10-31T07:39:58;100262.63;;;13.06;100.00
11041;BME280;5573;49.592;8.662;2022-10-31T07:42:26;100260.31;;;13.18;100.00
11041;BME280;5573;49.592;8.662;2022-10-31T07:44:54;100252.47;;;13.31;100.00
11041;BME280;5573;49.592;8.662;2022-10-31T07:47:42;100257.28;;;13.45;100.00
11041;BME280;5573;49.592;8.662;2022-10-31T07:50:33;100262.06;;;13.62;100.00
11041;BME280;5573;49.592;8.662;2022-10-31T07:53:19;100274.72;;;13.78;100.00
11041;BME280;5573;49.592;8.662;2022-10-31T07:56:11;100275.13;;;13.73;100.00
11041;BME280;5573;49.592;8.662;2022-10-31T07:58:39;100271.13;;;13.63;100.00
11041;BME280;5573;49.592;8.662;2022-10-31T08:01:07;100257.72;;;13.69;100.00
11041;BME280;5573;49.592;8.662;2022-10-31T08:03:45;100260.91;;;13.78;100.00
11041;BME280;5573;49.592;8.662;2022-10-31T08:06:32;100254.19;;;13.79;100.00
11041;BME280;5573;49.592;8.662;2022-10-31T08:09:11;100256.19;;;13.86;100.00
11041;BME280;5573;49.592;8.662;2022-10-31T08:11:41;100251.03;;;13.91;100.00
11041;BME280;5573;49.592;8.662;2022-10-31T08:14:08;100248.69;;;14.00;100.00
11041;BME280;5573;49.592;8.662;2022-10-31T08:16:36;100254.19;;;14.18;100.00
11041;BME280;5573;49.592;8.662;2022-10-31T08:19:05;100255.00;;;14.40;100.00
11041;BME280;5573;49.592;8.662;2022-10-31T08:21:37;100259.31;;;14.52;100.00
11041;BME280;5573;49.592;8.662;2022-10-31T08:24:07;100258.94;;;14.64;100.00
11041;BME280;5573;49.592;8.662;2022-10-31T08:26:35;100250.25;;;14.70;100.00
11041;BME280;5573;49.592;8.662;2022-10-31T08:29:07;100253.41;;;14.54;100.00
11041;BME280;5573;49.592;8.662;2022-10-31T08:31:36;100252.63;;;14.64;100.00
11041;BME280;5573;49.592;8.662;2022-10-31T08:34:40;100239.91;;;14.84;100.00
11041;BME280;5573;49.592;8.662;2022-10-31T08:37:34;100235.91;;;15.00;100.00
11041;BME280;5573;49.592;8.662;2022-10-31T08:40:04;100242.13;;;15.25;100.00
11041;BME280;5573;49.592;8.662;2022-10-31T08:42:33;100247.66;;;15.33;100.00
11041;BME280;5573;49.592;8.662;2022-10-31T08:45:04;100235.66;;;15.50;100.00
11041;BME280;5573;49.592;8.662;2022-10-31T08:47:32;100234.84;;;15.57;100.00
11041;BME280;5573;49.592;8.662;2022-10-31T08:50:00;100239.13;;;15.69;100.00
11041;BME280;5573;49.592;8.662;2022-10-31T08:52:28;100236.34;;;15.69;100.00
11041;BME280;5573;49.592;8.662;2022-10-31T08:55:16;100234.81;;;15.60;100.00
11041;BME280;5573;49.592;8.662;2022-10-31T08:58:02;100249.41;;;15.75;100.00
11041;BME280;5573;49.592;8.662;2022-10-31T09:00:40;100244.50;;;15.94;100.00
11041;BME280;5573;49.592;8.662;2022-10-31T09:03:21;100242.81;;;16.11;100.00
11041;BME280;5573;49.592;8.662;2022-10-31T09:05:49;100235.22;;;16.15;100.00
11041;BME280;5573;49.592;8.662;2022-10-31T09:08:17;100237.59;;;16.20;100.00
11041;BME280;5573;49.592;8.662;2022-10-31T09:10:47;100240.13;;;16.45;100.00
11041;BME280;5573;49.592;8.662;2022-10-31T09:13:20;100234.91;;;16.51;100.00
11041;BME280;5573;49.592;8.662;2022-10-31T09:16:13;100236.19;;;16.42;100.00
11041;BME280;5573;49.592;8.662;2022-10-31T09:18:42;100230.00;;;16.24;100.00
11041;BME280;5573;49.592;8.662;2022-10-31T09:21:09;100245.69;;;16.45;100.00
11041;BME280;5573;49.592;8.662;2022-10-31T09:23:37;100250.78;;;16.50;100.00
11041;BME280;5573;49.592;8.662;2022-10-31T09:26:05;100252.31;;;16.55;100.00
11041;BME280;5573;49.592;8.662;2022-10-31T09:28:36;100243.47;;;16.67;100.00
11041;BME280;5573;49.592;8.662;2022-10-31T09:31:07;100242.28;;;16.68;100.00
11041;BME280;5573;49.592;8.662;2022-10-31T09:33:49;100238.56;;;16.85;100.00
11041;BME280;5573;49.592;8.662;2022-10-31T09:36:42;100236.50;;;16.93;100.00
11041;BME280;5573;49.592;8.662;2022-10-31T09:39:17;100234.41;;;17.01;100.00
11041;BME280;5573;49.592;8.662;2022-10-31T09:42:03;100235.47;;;17.11;100.00
11041;BME280;5573;49.592;8.662;2022-10-31T09:44:43;100244.09;;;17.20;100.00
11041;BME280;5573;49.592;8.662;2022-10-31T09:47:48;100241.16;;;17.00;100.00
11041;BME280;5573;49.592;8.662;2022-10-31T09:50:43;100244.53;;;17.18;100.00
11041;BME280;5573;49.592;8.662;2022-10-31T09:53:37;100241.75;;;17.18;100.00
11041;BME280;5573;49.592;8.662;2022-10-31T09:56:12;100238.31;;;17.38;100.00
11041;BME280;5573;49.592;8.662;2022-10-31T09:58:42;100233.75;;;17.51;100.00
11041;BME280;5573;49.592;8.662;2022-10-31T10:01:26;100234.28;;;17.70;100.00
11041;BME280;5573;49.592;8.662;2022-10-31T10:03:59;100239.47;;;17.67;100.00
11041;BME280;5573;49.592;8.662;2022-10-31T10:07:12;100226.34;;;17.68;100.00
11041;BME280;5573;49.592;8.662;2022-10-31T10:09:44;100217.06;;;17.78;100.00
11041;BME280;5573;49.592;8.662;2022-10-31T10:12:42;100143.78;;;17.38;100.00
11041;BME280;5573;49.592;8.662;2022-10-31T10:15:27;100209.97;;;17.74;100.00
11041;BME280;5573;49.592;8.662;2022-10-31T10:18:04;100216.47;;;17.94;100.00
11041;BME280;5573;49.592;8.662;2022-10-31T10:20:40;100213.59;;;17.98;100.00
11041;BME280;5573;49.592;8.662;2022-10-31T10:23:28;100212.34;;;18.26;100.00
11041;BME280;5573;49.592;8.662;2022-10-31T10:26:04;100204.19;;;18.15;100.00
11041;BME280;5573;49.592;8.662;2022-10-31T10:28:38;100210.47;;;18.63;100.00
11041;BME280;5573;49.592;8.662;2022-10-31T10:31:12;100207.75;;;18.83;100.00
11041;BME280;5573;49.592;8.662;2022-10-31T10:33:54;100204.44;;;18.88;100.00
11041;BME280;5573;49.592;8.662;2022-10-31T10:36:28;100198.06;;;19.07;100.00
11041;BME280;5573;49.592;8.662;2022-10-31T10:39:04;100202.28;;;19.16;100.00
11041;BME280;5573;49.592;8.662;2022-10-31T10:41:43;100184.91;;;19.08;100.00
11041;BME280;5573;49.592;8.662;2022-10-31T10:44:13;100197.91;;;19.15;100.00
11041;BME280;5573;49.592;8.662;2022-10-31T10:46:43;100192.59;;;19.20;100.00
11041;BME280;5573;49.592;8.662;2022-10-31T10:49:32;100192.69;;;19.17;100.00
11041;BME280;5573;49.592;8.662;2022-10-31T10:52:07;100193.53;;;19.14;100.00
11041;BME280;5573;49.592;8.662;2022-10-31T10:55:04;100191.13;;;19.16;100.00
11041;BME280;5573;49.592;8.662;2022-10-31T10:57:45;100184.81;;;19.12;100.00
11041;BME280;5573;49.592;8.662;2022-10-31T11:00:19;100182.78;;;18.96;100.00
11041;BME280;5573;49.592;8.662;2022-10-31T11:02:48;100161.63;;;18.78;100.00
11041;BME280;5573;49.592;8.662;2022-10-31T11:05:23;100182.47;;;18.70;100.00
11041;BME280;5573;49.592;8.662;2022-10-31T11:07:51;100174.09;;;18.50;100.00
11041;BME280;5573;49.592;8.662;2022-10-31T11:10:20;100162.44;;;18.35;100.00
11041;BME280;5573;49.592;8.662;2022-10-31T11:13:00;100152.94;;;18.33;100.00
11041;BME280;5573;49.592;8.662;2022-10-31T11:15:31;100123.59;;;18.28;100.00
11041;BME280;5573;49.592;8.662;2022-10-31T11:17:59;100148.44;;;18.59;100.00
11041;BME280;5573;49.592;8.662;2022-10-31T11:20:30;100146.91;;;18.58;100.00
11041;BME280;5573;49.592;8.662;2022-10-31T11:23:16;100148.81;;;18.61;100.00
11041;BME280;5573;49.592;8.662;2022-10-31T11:25:54;100137.03;;;18.53;100.00
11041;BME280;5573;49.592;8.662;2022-10-31T11:28:22;100144.59;;;18.53;100.00
11041;BME280;5573;49.592;8.662;2022-10-31T11:30:52;100141.09;;;18.48;100.00
11041;BME280;5573;49.592;8.662;2022-10-31T11:33:26;100137.19;;;18.66;100.00
11041;BME280;5573;49.592;8.662;2022-10-31T11:35:55;100127.81;;;18.56;100.00
11041;BME280;5573;49.592;8.662;2022-10-31T11:38:30;100129.94;;;18.48;100.00
11041;BME280;5573;49.592;8.662;2022-10-31T11:41:08;100126.53;;;18.61;100.00
11041;BME280;5573;49.592;8.662;2022-10-31T11:43:37;100116.09;;;18.65;100.00
11041;BME280;5573;49.592;8.662;2022-10-31T11:46:09;100115.41;;;18.81;100.00
11041;BME280;5573;49.592;8.662;2022-10-31T11:48:38;100109.59;;;18.92;100.00
11041;BME280;5573;49.592;8.662;2022-10-31T11:51:06;100113.13;;;19.12;100.00
11041;BME280;5573;49.592;8.662;2022-10-31T11:53:35;100121.56;;;19.08;100.00
11041;BME280;5573;49.592;8.662;2022-10-31T11:56:10;100109.28;;;19.06;100.00
11041;BME280;5573;49.592;8.662;2022-10-31T11:58:39;100107.72;;;19.05;100.00
11041;BME280;5573;49.592;8.662;2022-10-31T12:01:22;100099.88;;;19.16;100.00
11041;BME280;5573;49.592;8.662;2022-10-31T12:03:57;100096.91;;;19.07;100.00
11041;BME280;5573;49.592;8.662;2022-10-31T12:06:31;100100.88;;;18.89;100.00
11041;BME280;5573;49.592;8.662;2022-10-31T12:09:00;100087.94;;;18.59;100.00
11041;BME280;5573;49.592;8.662;2022-10-31T12:11:43;100084.50;;;18.72;100.00
11041;BME280;5573;49.592;8.662;2022-10-31T12:14:23;100087.56;;;18.97;100.00
11041;BME280;5573;49.592;8.662;2022-10-31T12:16:57;100080.00;;;18.98;100.00
11041;BME280;5573;49.592;8.662;2022-10-31T12:19:35;100073.50;;;18.84;100.00
11041;BME280;5573;49.592;8.662;2022-10-31T12:22:15;100041.66;;;18.65;100.00
11041;BME280;5573;49.592;8.662;2022-10-31T12:24:58;100053.56;;;18.86;100.00
11041;BME280;5573;49.592;8.662;2022-10-31T12:27:37;100062.38;;;19.01;100.00
11041;BME280;5573;49.592;8.662;2022-10-31T12:30:19;100068.06;;;18.77;100.00
11041;BME280;5573;49.592;8.662;2022-10-31T12:32:59;100056.28;;;18.69;100.00
11041;BME280;5573;49.592;8.662;2022-10-31T12:35:44;100054.72;;;18.68;100.00
11041;BME280;5573;49.592;8.662;2022-10-31T12:38:28;100046.16;;;18.79;100.00
11041;BME280;5573;49.592;8.662;2022-10-31T12:41:07;100044.06;;;18.63;100.00
11041;BME280;5573;49.592;8.662;2022-10-31T12:43:45;100027.16;;;18.74;100.00
11041;BME280;5573;49.592;8.662;2022-10-31T12:46:23;100036.16;;;18.62;100.00
11041;BME280;5573;49.592;8.662;2022-10-31T12:51:53;100041.47;;;18.56;100.00
11041;BME280;5573;49.592;8.662;2022-10-31T12:54:39;100038.38;;;18.71;100.00
11041;BME280;5573;49.592;8.662;2022-10-31T12:57:21;100033.16;;;18.73;100.00
11041;BME280;5573;49.592;8.662;2022-10-31T12:59:54;100033.38;;;18.62;100.00
11041;BME280;5573;49.592;8.662;2022-10-31T13:02:27;100027.56;;;18.73;100.00
11041;BME280;5573;49.592;8.662;2022-10-31T13:05:01;100025.56;;;18.73;100.00
11041;BME280;5573;49.592;8.662;2022-10-31T13:07:35;100027.78;;;18.82;100.00
11041;BME280;5573;49.592;8.662;2022-10-31T13:10:08;100017.69;;;18.88;100.00
11041;BME280;5573;49.592;8.662;2022-10-31T13:12:42;100022.66;;;18.97;100.00
11041;BME280;5573;49.592;8.662;2022-10-31T13:15:17;100015.19;;;18.94;100.00
11041;BME280;5573;49.592;8.662;2022-10-31T13:17:48;99999.84;;;18.85;100.00
11041;BME280;5573;49.592;8.662;2022-10-31T13:20:22;99989.91;;;18.84;100.00
11041;BME280;5573;49.592;8.662;2022-10-31T13:22:54;99964.72;;;18.88;100.00
11041;BME280;5573;49.592;8.662;2022-10-31T13:25:25;99970.22;;;18.92;100.00
11041;BME280;5573;49.592;8.662;2022-10-31T13:27:58;99940.63;;;18.81;100.00
11041;BME280;5573;49.592;8.662;2022-10-31T13:30:30;99944.31;;;18.75;100.00
11041;BME280;5573;49.592;8.662;2022-10-31T13:33:02;99914.97;;;18.54;100.00
11041;BME280;5573;49.592;8.662;2022-10-31T13:35:39;99943.28;;;18.68;100.00
11041;BME280;5573;49.592;8.662;2022-10-31T13:38:16;99932.31;;;18.78;100.00
11041;BME280;5573;49.592;8.662;2022-10-31T13:40:52;99926.63;;;18.65;100.00
11041;BME280;5573;49.592;8.662;2022-10-31T13:43:30;99928.56;;;18.68;100.00
11041;BME280;5573;49.592;8.662;2022-10-31T13:46:00;99923.06;;;18.64;100.00
11041;BME280;5573;49.592;8.662;2022-10-31T13:48:35;99919.84;;;18.66;100.00
11041;BME280;5573;49.592;8.662;2022-10-31T13:51:05;99925.16;;;18.60;100.00
11041;BME280;5573;49.592;8.662;2022-10-31T13:53:43;99926.34;;;18.59;100.00
11041;BME280;5573;49.592;8.662;2022-10-31T13:56:17;99926.34;;;18.59;100.00
11041;BME280;5573;49.592;8.662;2022-10-31T14:01:49;99938.50;;;19.18;100.00
11041;BME280;5573;49.592;8.662;2022-10-31T14:04:20;99932.53;;;19.49;100.00
11041;BME280;5573;49.592;8.662;2022-10-31T14:06:56;99901.78;;;19.65;100.00
11041;BME280;5573;49.592;8.662;2022-10-31T14:09:28;99917.53;;;20.01;100.00
11041;BME280;5573;49.592;8.662;2022-10-31T14:12:00;99939.13;;;20.14;100.00
11041;BME280;5573;49.592;8.662;2022-10-31T14:14:33;99920.63;;;19.90;100.00
11041;BME280;5573;49.592;8.662;2022-10-31T14:17:04;99962.47;;;19.61;100.00
11041;BME280;5573;49.592;8.662;2022-10-31T14:19:33;99954.88;;;19.33;100.00
11041;BME280;5573;49.592;8.662;2022-10-31T14:22:00;99951.31;;;19.16;100.00